aviador You're here:

KIFA Decoded Metar

in _UNIDENTIFIED
Report Time2017-04-25 20:15:00
UTC Time2017-04-25 20:12:42
Flight Rules vfr VFR
Wind070° at 05 kt
W.Decomp.*RWY 13: 2.4 kt HW 4.4 kt LCW
W.Rank070° ranks 29
Current wind is below 070° avg. (6.9)
Visibility9999 m
Phenomena:N/A
Clouds:Broken 090 Hf
Expected CloudBase > 4,000 ft AGL from Temp-Dew spread
Ceiling9,000 ft
Temp20°C (ISA +7)
Dew Point10°C (53% RH)
AAT18.3°C
QNH999 hPa
Density Alt2,628 ft
Elevation1,138 ft
Report Wrong Elevation
Raw Report
METAR KIFA 252015Z AUTO 07005KT 10SM BKN090 20/10 A2949 RMK AO2
T02030103=

Extra information for KIFA:More info

Metar Taf Metar & Taf Last 4 Metars F.Rules Stats Wind Profile Meteogram Temp Stats Metar ALERT Operation Metar Decoded Social comments